ADDS METAR Data INFO
IDs: Format: Raw Decoded Include TAF

Data at: 1549 UTC 12 Dec 2017

KPHF 121454Z 23010KT 10SM CLR 07/02 A2963 RMK AO2 SLP035 T00720017 58019
KPHF 121354Z 23012G18KT 10SM CLR 07/02 A2965 RMK AO2 SLP042 T00720017
KPHF 121254Z 22010KT 10SM CLR 06/01 A2968 RMK AO2 SLP050 T00560006
KPHF 121154Z 21015KT 10SM CLR 06/01 A2969 RMK AO2 SLP054 T00610006 10067 20056 56032
KPHF 121054Z 20010KT 10SM CLR 06/00 A2971 RMK AO2 SLP060 T00610000
KPHF 120954Z 20014KT 10SM SCT120 07/M01 A2975 RMK AO2 SLP073 T00671006
KPHF 120854Z 20007KT 10SM BKN120 06/00 A2979 RMK AO2 SLP086 T00560000 58034
KPHF 120754Z 20007KT 10SM BKN120 06/00 A2983 RMK AO2 SLP102 T00560000
KPHF 120654Z 20008KT 10SM SCT120 06/00 A2985 RMK AO2 SLP109 T00610000
KPHF 120554Z 18008KT 10SM CLR 06/01 A2989 RMK AO2 SLP121 T00560011 10061 20044 58028
KPHF 120454Z 18007KT 10SM CLR 06/01 A2993 RMK AO2 SLP136 T00560011 401001006
KPHF 120354Z 18010KT 10SM CLR 06/01 A2996 RMK AO2 SLP145 T00610011
KPHF 120254Z 16005KT 10SM CLR 05/00 A2997 RMK AO2 SLP149 T00500000 58013
KPHF 120154Z 15007KT 10SM CLR 05/00 A2998 RMK AO2 SLP152 T00500000
KPHF 120054Z 15007KT 10SM CLR 06/M01 A3000 RMK AO2 SLP159 T00561011
KPHF 112354Z 14006KT 10SM CLR 05/M01 A3001 RMK AO2 SLP162 T00501011 10094 20022 56009
KPHF 112254Z 13007KT 10SM CLR 05/00 A3001 RMK AO2 SLP162 T00500000
KPHF 112154Z 12003KT 10SM CLR 06/M01 A3003 RMK AO2 SLP169 T00561011
KPHF 112054Z 22005KT 10SM CLR 09/M03 A3004 RMK AO2 SLP172 T00891033 55005
KPHF 111954Z 20005KT 10SM CLR 09/M04 A3004 RMK AO2 SLP171 T00941044
KPHF 111854Z 15011KT 10SM CLR 09/M01 A3003 RMK AO2 SLP170 T00891011
KPHF 111754Z VRB03KT 10SM CLR 09/M02 A3005 RMK AO2 SLP177 T00941022 10100 21006 58023
KPHF 111654Z VRB06KT 10SM CLR 08/M02 A3009 RMK AO2 SLP189 T00831017
KPHF 111554Z 29007KT 10SM CLR 07/M02 A3012 RMK AO2 SLP198 T00721022
KPHF 111454Z 28006KT 10SM CLR 05/M03 A3012 RMK AO2 SLP200 T00501028 51006
KPHF 111354Z 27008KT 10SM CLR 03/M03 A3012 RMK AO2 SLP199 T00281033
KPHF 111254Z 25006KT 10SM CLR 01/M03 A3011 RMK AO2 SLP197 T00111033
KPHF 111154Z 25005KT 10SM CLR 01/M04 A3010 RMK AO2 SLP194 60000 T00061039 10022 20000 53013
KPHF 111054Z 25006KT 10SM CLR 01/M03 A3009 RMK AO2 SLP188 T00061033
KPHF 110954Z AUTO 25007KT 10SM CLR 01/M03 A3007 RMK AO2 RAB22E35 SLP181 P0000 T00111033
KPHF 110854Z AUTO 23008KT 10SM BKN090 02/M03 A3007 RMK AO2 SLP181 T00171028 58014
KPHF 110754Z AUTO 21007KT 10SM CLR 01/M03 A3008 RMK AO2 SLP185 T00111028
KPHF 110654Z AUTO 22007KT 10SM CLR 01/M03 A3009 RMK AO2 SLP191 T00061028
KPHF 110554Z AUTO 22007KT 10SM CLR 01/M03 A3011 RMK AO2 SLP195 T00061028 10028 20006 58012
KPHF 110454Z AUTO 23008KT 10SM CLR 01/M03 A3012 RMK AO2 SLP199 T00111028 400560006
KPHF 110354Z AUTO 23007KT 10SM SCT110 02/M02 A3013 RMK AO2 SLP204 T00171022